sensor_id;sensor_type;location;lat;lon;timestamp;pressure;altitude;pressure_sealevel;temperature;humidity
54236;BME280;40151;43.606;1.472;2023-04-30T00:01:31;99402.88;;;20.65;58.54
54236;BME280;40151;43.606;1.472;2023-04-30T00:03:57;99406.44;;;20.64;58.41
54236;BME280;40151;43.606;1.472;2023-04-30T00:06:22;99408.28;;;20.64;58.46
54236;BME280;40151;43.606;1.472;2023-04-30T00:08:48;99421.53;;;20.64;58.33
54236;BME280;40151;43.606;1.472;2023-04-30T00:11:13;99414.41;;;20.64;58.53
54236;BME280;40151;43.606;1.472;2023-04-30T00:13:38;99405.53;;;20.65;58.41
54236;BME280;40151;43.606;1.472;2023-04-30T00:16:04;99416.22;;;20.64;58.46
54236;BME280;40151;43.606;1.472;2023-04-30T00:18:29;99414.41;;;20.64;58.41
54236;BME280;40151;43.606;1.472;2023-04-30T00:20:55;99407.41;;;20.63;58.32
54236;BME280;40151;43.606;1.472;2023-04-30T00:23:20;99407.31;;;20.65;58.34
54236;BME280;40151;43.606;1.472;2023-04-30T00:25:46;99409.09;;;20.64;58.38
54236;BME280;40151;43.606;1.472;2023-04-30T00:28:11;99399.38;;;20.65;58.19
54236;BME280;40151;43.606;1.472;2023-04-30T00:30:36;99405.53;;;20.65;58.38
54236;BME280;40151;43.606;1.472;2023-04-30T00:33:02;99405.69;;;20.62;58.47
54236;BME280;40151;43.606;1.472;2023-04-30T00:35:27;99398.50;;;20.64;58.35
54236;BME280;40151;43.606;1.472;2023-04-30T00:37:53;99393.19;;;20.64;58.31
54236;BME280;40151;43.606;1.472;2023-04-30T00:40:19;99382.59;;;20.64;58.09
54236;BME280;40151;43.606;1.472;2023-04-30T00:42:45;99384.50;;;20.62;58.30
54236;BME280;40151;43.606;1.472;2023-04-30T00:45:10;99388.84;;;20.63;58.23
54236;BME280;40151;43.606;1.472;2023-04-30T00:47:36;99380.88;;;20.63;58.34
54236;BME280;40151;43.606;1.472;2023-04-30T00:50:01;99381.75;;;20.64;58.40
54236;BME280;40151;43.606;1.472;2023-04-30T00:52:27;99385.44;;;20.61;58.17
54236;BME280;40151;43.606;1.472;2023-04-30T00:54:52;99393.19;;;20.64;58.28
54236;BME280;40151;43.606;1.472;2023-04-30T00:57:19;99382.78;;;20.61;58.48
54236;BME280;40151;43.606;1.472;2023-04-30T00:59:45;99381.09;;;20.60;58.51
54236;BME280;40151;43.606;1.472;2023-04-30T01:02:11;99376.72;;;20.59;58.54
54236;BME280;40151;43.606;1.472;2023-04-30T01:04:37;99370.66;;;20.57;58.48
54236;BME280;40151;43.606;1.472;2023-04-30T01:07:03;99375.97;;;20.57;58.51
54236;BME280;40151;43.606;1.472;2023-04-30T01:09:30;99378.63;;;20.57;58.25
54236;BME280;40151;43.606;1.472;2023-04-30T01:14:32;99370.66;;;20.57;58.17
54236;BME280;40151;43.606;1.472;2023-04-30T01:19:43;99371.63;;;20.56;58.58
54236;BME280;40151;43.606;1.472;2023-04-30T01:22:20;99364.63;;;20.55;58.35
54236;BME280;40151;43.606;1.472;2023-04-30T01:28:03;99363.75;;;20.55;58.43
54236;BME280;40151;43.606;1.472;2023-04-30T01:30:33;99366.41;;;20.55;58.47
54236;BME280;40151;43.606;1.472;2023-04-30T01:33:00;99370.88;;;20.54;58.22
54236;BME280;40151;43.606;1.472;2023-04-30T01:40:42;99361.97;;;20.55;58.48
54236;BME280;40151;43.606;1.472;2023-04-30T01:43:37;99352.47;;;20.51;58.42
54236;BME280;40151;43.606;1.472;2023-04-30T01:46:09;99355.13;;;20.51;58.49
54236;BME280;40151;43.606;1.472;2023-04-30T01:48:47;99358.66;;;20.51;58.49
54236;BME280;40151;43.606;1.472;2023-04-30T01:51:39;99356.84;;;20.52;58.31
54236;BME280;40151;43.606;1.472;2023-04-30T01:54:16;99355.13;;;20.51;58.38
54236;BME280;40151;43.606;1.472;2023-04-30T01:57:06;99357.97;;;20.48;58.41
54236;BME280;40151;43.606;1.472;2023-04-30T01:59:37;99357.03;;;20.49;58.41
54236;BME280;40151;43.606;1.472;2023-04-30T02:02:04;99360.63;;;20.48;58.39
54236;BME280;40151;43.606;1.472;2023-04-30T02:04:30;99360.81;;;20.45;58.55
54236;BME280;40151;43.606;1.472;2023-04-30T02:06:55;99358.91;;;20.47;58.49
54236;BME280;40151;43.606;1.472;2023-04-30T02:09:23;99363.28;;;20.48;58.20
54236;BME280;40151;43.606;1.472;2023-04-30T02:11:48;99366.84;;;20.47;58.46
54236;BME280;40151;43.606;1.472;2023-04-30T02:14:14;99363.28;;;20.48;58.42
54236;BME280;40151;43.606;1.472;2023-04-30T02:16:39;99368.66;;;20.46;58.39
54236;BME280;40151;43.606;1.472;2023-04-30T02:19:05;99364.22;;;20.47;58.52
54236;BME280;40151;43.606;1.472;2023-04-30T02:21:30;99373.09;;;20.46;58.47
54236;BME280;40151;43.606;1.472;2023-04-30T02:23:56;99367.81;;;20.46;58.41
54236;BME280;40151;43.606;1.472;2023-04-30T02:26:21;99374.81;;;20.47;58.54
54236;BME280;40151;43.606;1.472;2023-04-30T02:28:47;99387.31;;;20.45;58.27
54236;BME280;40151;43.606;1.472;2023-04-30T02:31:12;99381.06;;;20.46;58.29
54236;BME280;40151;43.606;1.472;2023-04-30T02:33:38;99377.56;;;20.45;58.16
54236;BME280;40151;43.606;1.472;2023-04-30T02:36:03;99382.97;;;20.44;58.44
54236;BME280;40151;43.606;1.472;2023-04-30T02:38:29;99374.81;;;20.47;58.26
54236;BME280;40151;43.606;1.472;2023-04-30T02:40:54;99374.81;;;20.47;58.34
54236;BME280;40151;43.606;1.472;2023-04-30T02:43:20;99375.66;;;20.47;58.43
54236;BME280;40151;43.606;1.472;2023-04-30T02:45:45;99378.41;;;20.46;58.40
54236;BME280;40151;43.606;1.472;2023-04-30T02:48:11;99384.66;;;20.45;58.41
54236;BME280;40151;43.606;1.472;2023-04-30T02:50:36;99375.84;;;20.44;58.17
54236;BME280;40151;43.606;1.472;2023-04-30T02:53:01;99385.59;;;20.44;58.46
54236;BME280;40151;43.606;1.472;2023-04-30T02:55:27;99380.31;;;20.44;58.42
54236;BME280;40151;43.606;1.472;2023-04-30T02:57:52;99381.25;;;20.43;58.30
54236;BME280;40151;43.606;1.472;2023-04-30T03:00:18;99382.97;;;20.44;58.24
54236;BME280;40151;43.606;1.472;2023-04-30T03:02:43;99394.50;;;20.43;58.51
54236;BME280;40151;43.606;1.472;2023-04-30T03:05:09;99387.47;;;20.42;58.12
54236;BME280;40151;43.606;1.472;2023-04-30T03:07:35;99392.78;;;20.42;58.31
54236;BME280;40151;43.606;1.472;2023-04-30T03:10:00;99383.91;;;20.43;58.46
54236;BME280;40151;43.606;1.472;2023-04-30T03:12:26;99384.75;;;20.43;58.43
54236;BME280;40151;43.606;1.472;2023-04-30T03:14:51;99391.09;;;20.41;58.22
54236;BME280;40151;43.606;1.472;2023-04-30T03:17:17;99386.81;;;20.38;58.46
54236;BME280;40151;43.606;1.472;2023-04-30T03:19:42;99389.47;;;20.38;58.38
54236;BME280;40151;43.606;1.472;2023-04-30T03:22:07;99391.19;;;20.39;58.51
54236;BME280;40151;43.606;1.472;2023-04-30T03:24:33;99391.28;;;20.37;58.32
54236;BME280;40151;43.606;1.472;2023-04-30T03:26:58;99396.56;;;20.37;58.45
54236;BME280;40151;43.606;1.472;2023-04-30T03:29:24;99399.22;;;20.37;58.28
54236;BME280;40151;43.606;1.472;2023-04-30T03:31:49;99398.28;;;20.38;58.41
54236;BME280;40151;43.606;1.472;2023-04-30T03:34:15;99394.88;;;20.36;58.27
54236;BME280;40151;43.606;1.472;2023-04-30T03:36:40;99398.44;;;20.35;58.37
54236;BME280;40151;43.606;1.472;2023-04-30T03:39:06;99398.44;;;20.35;58.47
54236;BME280;40151;43.606;1.472;2023-04-30T03:41:34;99399.41;;;20.34;58.55
54236;BME280;40151;43.606;1.472;2023-04-30T03:43:59;99398.44;;;20.35;58.42
54236;BME280;40151;43.606;1.472;2023-04-30T03:46:25;99402.81;;;20.36;58.42
54236;BME280;40151;43.606;1.472;2023-04-30T03:48:50;99405.66;;;20.33;58.39
54236;BME280;40151;43.606;1.472;2023-04-30T03:51:17;99398.44;;;20.35;58.38
54236;BME280;40151;43.606;1.472;2023-04-30T03:53:43;99400.19;;;20.36;58.35
54236;BME280;40151;43.606;1.472;2023-04-30T03:56:09;99403.94;;;20.32;58.44
54236;BME280;40151;43.606;1.472;2023-04-30T03:58:34;99420.50;;;20.36;58.44
54236;BME280;40151;43.606;1.472;2023-04-30T04:01:00;99416.25;;;20.33;58.29
54236;BME280;40151;43.606;1.472;2023-04-30T04:03:26;99418.72;;;20.36;58.22
54236;BME280;40151;43.606;1.472;2023-04-30T04:05:51;99413.44;;;20.36;58.32
54236;BME280;40151;43.606;1.472;2023-04-30T04:08:16;99410.00;;;20.34;58.13
54236;BME280;40151;43.606;1.472;2023-04-30T04:10:42;99412.66;;;20.34;58.38
54236;BME280;40151;43.606;1.472;2023-04-30T04:13:08;99417.19;;;20.32;58.25
54236;BME280;40151;43.606;1.472;2023-04-30T04:15:33;99413.69;;;20.32;58.29
54236;BME280;40151;43.606;1.472;2023-04-30T04:17:59;99411.97;;;20.31;58.41
54236;BME280;40151;43.606;1.472;2023-04-30T04:20:24;99412.84;;;20.31;58.27
54236;BME280;40151;43.606;1.472;2023-04-30T04:22:50;99417.13;;;20.34;58.17
54236;BME280;40151;43.606;1.472;2023-04-30T04:25:15;99416.25;;;20.33;58.37
54236;BME280;40151;43.606;1.472;2023-04-30T04:27:42;99418.16;;;20.31;58.14
54236;BME280;40151;43.606;1.472;2023-04-30T04:30:08;99425.31;;;20.29;58.50
54236;BME280;40151;43.606;1.472;2023-04-30T04:32:33;99422.56;;;20.31;58.16
54236;BME280;40151;43.606;1.472;2023-04-30T04:35:06;99425.16;;;20.32;58.06
54236;BME280;40151;43.606;1.472;2023-04-30T04:37:32;99424.41;;;20.30;58.32
54236;BME280;40151;43.606;1.472;2023-04-30T04:39:57;99425.16;;;20.32;58.25
54236;BME280;40151;43.606;1.472;2023-04-30T04:42:22;99431.38;;;20.31;58.18
54236;BME280;40151;43.606;1.472;2023-04-30T04:44:48;99429.69;;;20.30;58.18
54236;BME280;40151;43.606;1.472;2023-04-30T04:47:13;99426.19;;;20.30;58.32
54236;BME280;40151;43.606;1.472;2023-04-30T04:49:40;99430.59;;;20.29;58.06
54236;BME280;40151;43.606;1.472;2023-04-30T04:52:06;99436.78;;;20.30;58.05
54236;BME280;40151;43.606;1.472;2023-04-30T04:54:31;99435.81;;;20.31;58.21
54236;BME280;40151;43.606;1.472;2023-04-30T04:56:57;99437.53;;;20.32;58.02
54236;BME280;40151;43.606;1.472;2023-04-30T04:59:22;99433.25;;;20.29;58.26
54236;BME280;40151;43.606;1.472;2023-04-30T05:01:47;99434.22;;;20.28;58.25
54236;BME280;40151;43.606;1.472;2023-04-30T05:04:13;99431.56;;;20.28;58.29
54236;BME280;40151;43.606;1.472;2023-04-30T05:06:38;99431.31;;;20.33;58.12
54236;BME280;40151;43.606;1.472;2023-04-30T05:09:04;99437.63;;;20.30;58.12
54236;BME280;40151;43.606;1.472;2023-04-30T05:11:33;99442.81;;;20.32;58.17
54236;BME280;40151;43.606;1.472;2023-04-30T05:13:58;99450.88;;;20.30;58.20
54236;BME280;40151;43.606;1.472;2023-04-30T05:16:23;99441.03;;;20.32;58.09
54236;BME280;40151;43.606;1.472;2023-04-30T05:18:50;99450.97;;;20.29;58.07
54236;BME280;40151;43.606;1.472;2023-04-30T05:21:16;99445.75;;;20.27;58.27
54236;BME280;40151;43.606;1.472;2023-04-30T05:23:42;99455.50;;;20.26;58.24
54236;BME280;40151;43.606;1.472;2023-04-30T05:26:08;99462.59;;;20.26;58.16
54236;BME280;40151;43.606;1.472;2023-04-30T05:28:33;99466.19;;;20.25;58.18
54236;BME280;40151;43.606;1.472;2023-04-30T05:30:59;99461.84;;;20.24;58.35
54236;BME280;40151;43.606;1.472;2023-04-30T05:33:25;99460.13;;;20.23;58.20
54236;BME280;40151;43.606;1.472;2023-04-30T05:35:50;99465.53;;;20.21;58.40
54236;BME280;40151;43.606;1.472;2023-04-30T05:38:15;99462.97;;;20.20;58.43
54236;BME280;40151;43.606;1.472;2023-04-30T05:40:41;99463.63;;;20.23;58.06
54236;BME280;40151;43.606;1.472;2023-04-30T05:43:06;99469.97;;;20.21;58.45
54236;BME280;40151;43.606;1.472;2023-04-30T05:45:32;99465.59;;;20.20;58.38
54236;BME280;40151;43.606;1.472;2023-04-30T05:47:58;99464.00;;;20.17;58.41
54236;BME280;40151;43.606;1.472;2023-04-30T05:50:23;99475.34;;;20.19;58.39
54236;BME280;40151;43.606;1.472;2023-04-30T05:52:49;99464.81;;;20.18;58.37
54236;BME280;40151;43.606;1.472;2023-04-30T05:55:14;99470.13;;;20.18;58.29
54236;BME280;40151;43.606;1.472;2023-04-30T05:57:40;99471.84;;;20.19;58.33
54236;BME280;40151;43.606;1.472;2023-04-30T06:00:05;99472.00;;;20.16;58.21
54236;BME280;40151;43.606;1.472;2023-04-30T06:02:31;99471.06;;;20.17;58.52
54236;BME280;40151;43.606;1.472;2023-04-30T06:04:57;99466.63;;;20.17;58.23
54236;BME280;40151;43.606;1.472;2023-04-30T06:07:22;99471.84;;;20.19;58.26
54236;BME280;40151;43.606;1.472;2023-04-30T06:09:47;99473.72;;;20.17;58.10
54236;BME280;40151;43.606;1.472;2023-04-30T06:12:13;99475.59;;;20.15;58.33
54236;BME280;40151;43.606;1.472;2023-04-30T06:14:38;99479.81;;;20.19;58.13
54236;BME280;40151;43.606;1.472;2023-04-30T06:17:07;99485.94;;;20.19;58.15
54236;BME280;40151;43.606;1.472;2023-04-30T06:19:32;99486.13;;;20.16;58.25
54236;BME280;40151;43.606;1.472;2023-04-30T06:21:58;99486.00;;;20.18;58.15
54236;BME280;40151;43.606;1.472;2023-04-30T06:24:23;99493.22;;;20.16;58.31
54236;BME280;40151;43.606;1.472;2023-04-30T06:26:51;99499.44;;;20.15;58.25
54236;BME280;40151;43.606;1.472;2023-04-30T06:29:17;99493.22;;;20.16;58.30
54236;BME280;40151;43.606;1.472;2023-04-30T06:31:42;99493.28;;;20.14;58.45
54236;BME280;40151;43.606;1.472;2023-04-30T06:34:07;99492.38;;;20.15;58.19
54236;BME280;40151;43.606;1.472;2023-04-30T06:36:33;99494.91;;;20.17;58.25
54236;BME280;40151;43.606;1.472;2023-04-30T06:38:58;99498.44;;;20.17;58.15
54236;BME280;40151;43.606;1.472;2023-04-30T06:41:24;99502.09;;;20.15;58.23
54236;BME280;40151;43.606;1.472;2023-04-30T06:43:49;99496.81;;;20.15;58.25
54236;BME280;40151;43.606;1.472;2023-04-30T06:46:15;99501.16;;;20.16;58.18
54236;BME280;40151;43.606;1.472;2023-04-30T06:48:40;99503.81;;;20.16;58.21
54236;BME280;40151;43.606;1.472;2023-04-30T06:51:06;99507.41;;;20.15;58.19
54236;BME280;40151;43.606;1.472;2023-04-30T06:53:31;99515.34;;;20.15;58.33
54236;BME280;40151;43.606;1.472;2023-04-30T06:55:56;99520.47;;;20.18;58.24
54236;BME280;40151;43.606;1.472;2023-04-30T06:58:22;99521.41;;;20.17;58.14
54236;BME280;40151;43.606;1.472;2023-04-30T07:00:48;99518.88;;;20.15;58.21
54236;BME280;40151;43.606;1.472;2023-04-30T07:03:13;99525.00;;;20.16;58.25
54236;BME280;40151;43.606;1.472;2023-04-30T07:05:39;99526.88;;;20.14;58.27
54236;BME280;40151;43.606;1.472;2023-04-30T07:08:05;99526.81;;;20.15;58.26
54236;BME280;40151;43.606;1.472;2023-04-30T07:10:31;99534.66;;;20.17;58.18
54236;BME280;40151;43.606;1.472;2023-04-30T07:12:56;99532.00;;;20.17;58.18
54236;BME280;40151;43.606;1.472;2023-04-30T07:15:22;99532.88;;;20.17;58.04
54236;BME280;40151;43.606;1.472;2023-04-30T07:17:48;99531.31;;;20.13;58.31
54236;BME280;40151;43.606;1.472;2023-04-30T07:20:13;99533.03;;;20.14;58.37
54236;BME280;40151;43.606;1.472;2023-04-30T07:22:39;99540.97;;;20.14;58.27
54236;BME280;40151;43.606;1.472;2023-04-30T07:25:05;99539.13;;;20.16;58.06
54236;BME280;40151;43.606;1.472;2023-04-30T07:27:31;99540.13;;;20.14;58.09
54236;BME280;40151;43.606;1.472;2023-04-30T07:29:56;99542.59;;;20.17;58.14
54236;BME280;40151;43.606;1.472;2023-04-30T07:32:22;99544.31;;;20.18;58.04
54236;BME280;40151;43.606;1.472;2023-04-30T07:34:47;99551.50;;;20.16;57.97
54236;BME280;40151;43.606;1.472;2023-04-30T07:37:13;99553.38;;;20.14;58.17
54236;BME280;40151;43.606;1.472;2023-04-30T07:39:38;99557.66;;;20.16;58.23
54236;BME280;40151;43.606;1.472;2023-04-30T07:42:05;99554.91;;;20.18;58.16
54236;BME280;40151;43.606;1.472;2023-04-30T07:44:30;99555.09;;;20.15;58.02
54236;BME280;40151;43.606;1.472;2023-04-30T07:46:57;99556.78;;;20.16;58.03
54236;BME280;40151;43.606;1.472;2023-04-30T07:49:23;99551.69;;;20.12;58.01
54236;BME280;40151;43.606;1.472;2023-04-30T07:51:49;99542.78;;;20.14;58.03
54236;BME280;40151;43.606;1.472;2023-04-30T07:54:14;99549.78;;;20.15;58.18
54236;BME280;40151;43.606;1.472;2023-04-30T07:56:40;99545.50;;;20.12;58.08
54236;BME280;40151;43.606;1.472;2023-04-30T07:59:06;99561.50;;;20.10;58.16
54236;BME280;40151;43.606;1.472;2023-04-30T08:01:31;99553.38;;;20.14;58.03
54236;BME280;40151;43.606;1.472;2023-04-30T08:03:57;99562.28;;;20.12;58.18
54236;BME280;40151;43.606;1.472;2023-04-30T08:06:22;99565.84;;;20.11;58.21
54236;BME280;40151;43.606;1.472;2023-04-30T08:08:48;99565.09;;;20.09;58.27
54236;BME280;40151;43.606;1.472;2023-04-30T08:11:13;99571.13;;;20.11;58.29
54236;BME280;40151;43.606;1.472;2023-04-30T08:13:40;99558.06;;;20.08;58.29
54236;BME280;40151;43.606;1.472;2023-04-30T08:16:06;99578.16;;;20.12;58.26
54236;BME280;40151;43.606;1.472;2023-04-30T08:18:31;99579.28;;;20.08;58.20
54236;BME280;40151;43.606;1.472;2023-04-30T08:20:56;99570.38;;;20.09;58.06
54236;BME280;40151;43.606;1.472;2023-04-30T08:23:22;99580.03;;;20.10;58.20
54236;BME280;40151;43.606;1.472;2023-04-30T08:25:47;99574.91;;;20.07;58.27
54236;BME280;40151;43.606;1.472;2023-04-30T08:28:13;99583.63;;;20.09;58.41
54236;BME280;40151;43.606;1.472;2023-04-30T08:30:38;99596.88;;;20.09;58.07
54236;BME280;40151;43.606;1.472;2023-04-30T08:33:04;99589.09;;;20.06;58.29
54236;BME280;40151;43.606;1.472;2023-04-30T08:35:29;99590.69;;;20.09;58.21
54236;BME280;40151;43.606;1.472;2023-04-30T08:37:55;99579.00;;;20.13;58.14
54236;BME280;40151;43.606;1.472;2023-04-30T08:40:21;99592.44;;;20.10;58.50
54236;BME280;40151;43.606;1.472;2023-04-30T08:42:59;99594.22;;;20.09;58.20
54236;BME280;40151;43.606;1.472;2023-04-30T08:45:30;99599.53;;;20.09;58.22
54236;BME280;40151;43.606;1.472;2023-04-30T08:47:58;99597.81;;;20.08;58.28
54236;BME280;40151;43.606;1.472;2023-04-30T08:50:24;99603.88;;;20.10;58.18
54236;BME280;40151;43.606;1.472;2023-04-30T08:52:49;99607.53;;;20.08;58.24
54236;BME280;40151;43.606;1.472;2023-04-30T08:55:15;99612.00;;;20.07;58.04
54236;BME280;40151;43.606;1.472;2023-04-30T08:57:40;99612.94;;;20.06;58.03
54236;BME280;40151;43.606;1.472;2023-04-30T09:00:06;99622.59;;;20.07;58.34
54236;BME280;40151;43.606;1.472;2023-04-30T09:02:33;99616.34;;;20.08;58.21
54236;BME280;40151;43.606;1.472;2023-04-30T09:04:58;99626.88;;;20.10;58.17
54236;BME280;40151;43.606;1.472;2023-04-30T09:07:25;99617.47;;;20.04;58.16
54236;BME280;40151;43.606;1.472;2023-04-30T09:09:53;99616.44;;;20.07;58.09
54236;BME280;40151;43.606;1.472;2023-04-30T09:12:19;99621.91;;;20.04;58.33
54236;BME280;40151;43.606;1.472;2023-04-30T09:15:17;99616.44;;;20.07;58.13
54236;BME280;40151;43.606;1.472;2023-04-30T09:17:42;99622.59;;;20.07;58.20
54236;BME280;40151;43.606;1.472;2023-04-30T09:20:09;99624.31;;;20.08;58.08
54236;BME280;40151;43.606;1.472;2023-04-30T09:22:36;99618.06;;;20.09;57.96
54236;BME280;40151;43.606;1.472;2023-04-30T09:25:03;99627.91;;;20.07;57.98
54236;BME280;40151;43.606;1.472;2023-04-30T09:27:29;99620.72;;;20.09;58.10
54236;BME280;40151;43.606;1.472;2023-04-30T09:29:54;99629.59;;;20.08;58.04
54236;BME280;40151;43.606;1.472;2023-04-30T09:32:20;99624.31;;;20.08;57.90
54236;BME280;40151;43.606;1.472;2023-04-30T09:34:45;99625.25;;;20.07;58.10
54236;BME280;40151;43.606;1.472;2023-04-30T09:37:11;99623.44;;;20.08;58.02
54236;BME280;40151;43.606;1.472;2023-04-30T09:39:47;99622.59;;;20.07;58.03
54236;BME280;40151;43.606;1.472;2023-04-30T09:42:13;99622.59;;;20.07;58.04
54236;BME280;40151;43.606;1.472;2023-04-30T09:44:40;99620.72;;;20.09;57.93
54236;BME280;40151;43.606;1.472;2023-04-30T09:47:31;99618.06;;;20.09;57.81
54236;BME280;40151;43.606;1.472;2023-04-30T09:49:58;99625.41;;;20.04;58.19
54236;BME280;40151;43.606;1.472;2023-04-30T09:52:24;99628.06;;;20.04;57.99
54236;BME280;40151;43.606;1.472;2023-04-30T09:54:49;99622.59;;;20.07;58.28
54236;BME280;40151;43.606;1.472;2023-04-30T09:57:14;99627.03;;;20.07;58.07
54236;BME280;40151;43.606;1.472;2023-04-30T09:59:43;99626.09;;;20.08;57.87
54236;BME280;40151;43.606;1.472;2023-04-30T10:02:09;99617.13;;;20.10;57.70
54236;BME280;40151;43.606;1.472;2023-04-30T10:04:35;99618.06;;;20.09;58.13
54236;BME280;40151;43.606;1.472;2023-04-30T10:07:03;99622.41;;;20.10;57.86
54236;BME280;40151;43.606;1.472;2023-04-30T10:09:58;99617.13;;;20.10;57.98
54236;BME280;40151;43.606;1.472;2023-04-30T10:12:23;99617.31;;;20.07;58.05
54236;BME280;40151;43.606;1.472;2023-04-30T10:14:54;99627.91;;;20.07;58.24
54236;BME280;40151;43.606;1.472;2023-04-30T10:17:23;99627.72;;;20.10;58.04
54236;BME280;40151;43.606;1.472;2023-04-30T10:19:53;99618.81;;;20.11;58.00
54236;BME280;40151;43.606;1.472;2023-04-30T10:22:21;99615.41;;;20.09;57.94
54236;BME280;40151;43.606;1.472;2023-04-30T10:24:47;99622.41;;;20.10;58.05
54236;BME280;40151;43.606;1.472;2023-04-30T10:27:13;99624.31;;;20.08;58.10
54236;BME280;40151;43.606;1.472;2023-04-30T10:29:38;99631.31;;;20.09;58.03
54236;BME280;40151;43.606;1.472;2023-04-30T10:32:05;99623.44;;;20.08;57.93
54236;BME280;40151;43.606;1.472;2023-04-30T10:37:36;99618.94;;;20.10;58.05
54236;BME280;40151;43.606;1.472;2023-04-30T10:40:04;99631.31;;;20.09;58.01
54236;BME280;40151;43.606;1.472;2023-04-30T10:42:34;99627.72;;;20.10;58.02
54236;BME280;40151;43.606;1.472;2023-04-30T10:45:04;99619.84;;;20.09;57.94
54236;BME280;40151;43.606;1.472;2023-04-30T10:47:29;99626.00;;;20.09;58.10
54236;BME280;40151;43.606;1.472;2023-04-30T10:50:07;99622.41;;;20.10;58.01
54236;BME280;40151;43.606;1.472;2023-04-30T10:52:33;99625.06;;;20.10;58.18
54236;BME280;40151;43.606;1.472;2023-04-30T10:55:03;99625.00;;;20.12;58.06
54236;BME280;40151;43.606;1.472;2023-04-30T10:57:29;99630.13;;;20.15;58.04
54236;BME280;40151;43.606;1.472;2023-04-30T11:02:43;99620.22;;;20.19;57.75
54236;BME280;40151;43.606;1.472;2023-04-30T11:05:13;99618.47;;;20.18;57.69
54236;BME280;40151;43.606;1.472;2023-04-30T11:10:13;99613.03;;;20.21;57.59
54236;BME280;40151;43.606;1.472;2023-04-30T11:12:50;99608.59;;;20.21;57.84
54236;BME280;40151;43.606;1.472;2023-04-30T11:15:25;99603.97;;;20.25;57.62
54236;BME280;40151;43.606;1.472;2023-04-30T11:17:55;99610.97;;;20.26;57.55
54236;BME280;40151;43.606;1.472;2023-04-30T11:20:24;99603.78;;;20.28;57.59
54236;BME280;40151;43.606;1.472;2023-04-30T11:23:13;99609.09;;;20.28;57.31
54236;BME280;40151;43.606;1.472;2023-04-30T11:25:40;99602.97;;;20.28;57.72
54236;BME280;40151;43.606;1.472;2023-04-30T11:28:10;99611.66;;;20.30;57.46
54236;BME280;40151;43.606;1.472;2023-04-30T11:30:37;99607.22;;;20.30;57.31
54236;BME280;40151;43.606;1.472;2023-04-30T11:33:03;99600.97;;;20.31;57.53
54236;BME280;40151;43.606;1.472;2023-04-30T11:35:30;99603.63;;;20.31;57.56
54236;BME280;40151;43.606;1.472;2023-04-30T11:37:56;99600.97;;;20.31;57.39
54236;BME280;40151;43.606;1.472;2023-04-30T11:40:24;99611.66;;;20.30;57.62
54236;BME280;40151;43.606;1.472;2023-04-30T11:42:51;99608.94;;;20.31;57.64
54236;BME280;40151;43.606;1.472;2023-04-30T11:45:16;99604.59;;;20.30;57.62
54236;BME280;40151;43.606;1.472;2023-04-30T11:47:53;99601.94;;;20.30;57.50
54236;BME280;40151;43.606;1.472;2023-04-30T11:50:20;99612.53;;;20.30;57.65
54236;BME280;40151;43.606;1.472;2023-04-30T11:52:52;99604.59;;;20.30;57.40
54236;BME280;40151;43.606;1.472;2023-04-30T11:55:19;99608.94;;;20.31;57.50
54236;BME280;40151;43.606;1.472;2023-04-30T11:57:47;99594.75;;;20.32;57.50
54236;BME280;40151;43.606;1.472;2023-04-30T12:00:14;99588.56;;;20.32;57.35
54236;BME280;40151;43.606;1.472;2023-04-30T12:02:44;99598.16;;;20.34;57.57
54236;BME280;40151;43.606;1.472;2023-04-30T12:08:03;99585.69;;;20.36;57.44
54236;BME280;40151;43.606;1.472;2023-04-30T12:10:32;99585.69;;;20.36;57.40
54236;BME280;40151;43.606;1.472;2023-04-30T12:12:58;99578.84;;;20.32;57.56
54236;BME280;40151;43.606;1.472;2023-04-30T12:15:24;99579.72;;;20.33;57.51
54236;BME280;40151;43.606;1.472;2023-04-30T12:17:57;99584.13;;;20.32;57.53
54236;BME280;40151;43.606;1.472;2023-04-30T12:20:28;99580.53;;;20.33;57.76
54236;BME280;40151;43.606;1.472;2023-04-30T12:22:56;99580.72;;;20.30;57.56
54236;BME280;40151;43.606;1.472;2023-04-30T12:25:22;99587.72;;;20.31;57.59
54236;BME280;40151;43.606;1.472;2023-04-30T12:27:51;99580.72;;;20.30;57.45
54236;BME280;40151;43.606;1.472;2023-04-30T12:30:22;99575.25;;;20.33;57.54
54236;BME280;40151;43.606;1.472;2023-04-30T12:32:50;99577.91;;;20.33;57.54
54236;BME280;40151;43.606;1.472;2023-04-30T12:35:17;99572.50;;;20.35;57.38
54236;BME280;40151;43.606;1.472;2023-04-30T12:37:45;99578.50;;;20.38;57.45
54236;BME280;40151;43.606;1.472;2023-04-30T12:40:12;99573.19;;;20.38;57.47
54236;BME280;40151;43.606;1.472;2023-04-30T12:42:38;99562.59;;;20.38;57.39
54236;BME280;40151;43.606;1.472;2023-04-30T12:45:04;99570.53;;;20.38;57.27
54236;BME280;40151;43.606;1.472;2023-04-30T12:47:30;99574.91;;;20.39;57.42
54236;BME280;40151;43.606;1.472;2023-04-30T12:49:55;99568.66;;;20.41;57.54
54236;BME280;40151;43.606;1.472;2023-04-30T12:52:25;99566.00;;;20.41;57.30
54236;BME280;40151;43.606;1.472;2023-04-30T12:54:51;99565.06;;;20.42;57.23
54236;BME280;40151;43.606;1.472;2023-04-30T12:57:17;99565.91;;;20.42;57.37
54236;BME280;40151;43.606;1.472;2023-04-30T13:02:17;99563.19;;;20.44;57.50
54236;BME280;40151;43.606;1.472;2023-04-30T13:04:43;99561.56;;;20.41;57.29
54236;BME280;40151;43.606;1.472;2023-04-30T13:07:09;99564.13;;;20.43;57.20
54236;BME280;40151;43.606;1.472;2023-04-30T13:09:36;99561.47;;;20.43;57.48
54236;BME280;40151;43.606;1.472;2023-04-30T13:12:03;99555.22;;;20.44;57.28
54236;BME280;40151;43.606;1.472;2023-04-30T13:14:29;99550.88;;;20.43;57.27
54236;BME280;40151;43.606;1.472;2023-04-30T13:16:55;99550.78;;;20.44;57.53
54236;BME280;40151;43.606;1.472;2023-04-30T13:19:20;99556.94;;;20.45;57.48
54236;BME280;40151;43.606;1.472;2023-04-30T13:21:46;99558.63;;;20.46;57.42
54236;BME280;40151;43.606;1.472;2023-04-30T13:24:11;99558.63;;;20.46;57.50
54236;BME280;40151;43.606;1.472;2023-04-30T13:26:37;99556.00;;;20.46;57.23